メインページ
METAR-TAF:

METAR-TAF

空港 :

Newberry, ミシガン州, アメリカ合衆国

緯度: 46-18-40N, 経度: 085-27-26W, 海抜: 265m

現時点の気象観測

当レポートは24分前の10:55(UTC)に作成
南/南東の風 4kt
気温 -12°C
湿度 92%
気圧 1022 hPa
視程: 16.1km
高度2500ftの千切れ雲あり
高度3000ftの千切れ雲あり
高度4400ftの曇り

METAR: KERY 231055Z AUTO 15004KT 10SM BKN025 BKN030 OVC044 M12/M13 A3019 RMK AO2 T11161129

時間: 06:19 (11:19 UTC)


TAF: 見つかりません

4,000以上の空港の気象観測と天気予報(METAR報とTAF報)

利用可能な観測所は地図上に黄色い丸と赤い丸で示す。

丸の上にカーソルを重ねると観測所名を参照できる。

次にクリックすると気象観測と天気予報を参照できる。

マップの切り替え:黒色「×」印の緑ボタンをクリックして拡大、「-」印の緑ボタンをクリックして縮小、緑色の三角印をクリックして隣りの地図に切り替え


METAR-TAF: